sensor_id;sensor_type;location;lat;lon;timestamp;P1;durP1;ratioP1;P2;durP2;ratioP2
13520;SDS011;6832;51.186;3.236;2022-10-31T00:00:25;10.57;;;4.93;;
13520;SDS011;6832;51.186;3.236;2022-10-31T00:02:53;7.90;;;3.97;;
13520;SDS011;6832;51.186;3.236;2022-10-31T00:05:34;8.77;;;4.23;;
13520;SDS011;6832;51.186;3.236;2022-10-31T00:08:07;10.33;;;4.57;;
13520;SDS011;6832;51.186;3.236;2022-10-31T00:13:38;16.20;;;5.90;;
13520;SDS011;6832;51.186;3.236;2022-10-31T00:16:14;11.70;;;5.07;;
13520;SDS011;6832;51.186;3.236;2022-10-31T00:19:06;11.03;;;4.70;;
13520;SDS011;6832;51.186;3.236;2022-10-31T00:21:35;11.77;;;5.03;;
13520;SDS011;6832;51.186;3.236;2022-10-31T00:27:05;9.67;;;4.57;;
13520;SDS011;6832;51.186;3.236;2022-10-31T00:29:32;9.97;;;4.97;;
13520;SDS011;6832;51.186;3.236;2022-10-31T00:32:05;9.57;;;4.43;;
13520;SDS011;6832;51.186;3.236;2022-10-31T00:34:39;7.83;;;3.90;;
13520;SDS011;6832;51.186;3.236;2022-10-31T00:37:20;8.60;;;3.90;;
13520;SDS011;6832;51.186;3.236;2022-10-31T00:39:52;11.47;;;5.40;;
13520;SDS011;6832;51.186;3.236;2022-10-31T00:42:35;11.33;;;4.87;;
13520;SDS011;6832;51.186;3.236;2022-10-31T00:47:41;6.77;;;3.87;;
13520;SDS011;6832;51.186;3.236;2022-10-31T00:50:15;7.17;;;3.93;;
13520;SDS011;6832;51.186;3.236;2022-10-31T00:52:45;7.97;;;3.90;;
13520;SDS011;6832;51.186;3.236;2022-10-31T00:55:18;12.10;;;5.10;;
13520;SDS011;6832;51.186;3.236;2022-10-31T00:57:47;11.33;;;5.40;;
13520;SDS011;6832;51.186;3.236;2022-10-31T01:00:29;7.17;;;3.80;;
13520;SDS011;6832;51.186;3.236;2022-10-31T01:03:00;9.00;;;4.23;;
13520;SDS011;6832;51.186;3.236;2022-10-31T01:05:33;9.20;;;4.43;;
13520;SDS011;6832;51.186;3.236;2022-10-31T01:08:03;9.97;;;4.57;;
13520;SDS011;6832;51.186;3.236;2022-10-31T01:10:40;7.53;;;4.10;;
13520;SDS011;6832;51.186;3.236;2022-10-31T01:13:09;8.17;;;3.53;;
13520;SDS011;6832;51.186;3.236;2022-10-31T01:15:42;8.47;;;3.83;;
13520;SDS011;6832;51.186;3.236;2022-10-31T01:18:20;10.27;;;4.57;;
13520;SDS011;6832;51.186;3.236;2022-10-31T01:20:56;11.07;;;4.90;;
13520;SDS011;6832;51.186;3.236;2022-10-31T01:23:32;7.00;;;3.70;;
13520;SDS011;6832;51.186;3.236;2022-10-31T01:26:07;7.57;;;4.43;;
13520;SDS011;6832;51.186;3.236;2022-10-31T01:31:15;7.03;;;3.87;;
13520;SDS011;6832;51.186;3.236;2022-10-31T01:33:45;8.43;;;4.20;;
13520;SDS011;6832;51.186;3.236;2022-10-31T01:36:13;7.83;;;4.00;;
13520;SDS011;6832;51.186;3.236;2022-10-31T01:41:21;5.53;;;3.80;;
13520;SDS011;6832;51.186;3.236;2022-10-31T01:43:56;11.33;;;4.70;;
13520;SDS011;6832;51.186;3.236;2022-10-31T01:46:37;8.33;;;4.47;;
13520;SDS011;6832;51.186;3.236;2022-10-31T01:49:13;12.77;;;6.00;;
13520;SDS011;6832;51.186;3.236;2022-10-31T01:51:46;9.13;;;4.70;;
13520;SDS011;6832;51.186;3.236;2022-10-31T01:54:22;9.63;;;4.83;;
13520;SDS011;6832;51.186;3.236;2022-10-31T01:57:05;5.47;;;3.80;;
13520;SDS011;6832;51.186;3.236;2022-10-31T01:59:53;8.00;;;4.43;;
13520;SDS011;6832;51.186;3.236;2022-10-31T02:02:30;5.87;;;3.93;;
13520;SDS011;6832;51.186;3.236;2022-10-31T02:05:04;7.13;;;4.23;;
13520;SDS011;6832;51.186;3.236;2022-10-31T02:07:37;7.50;;;4.57;;
13520;SDS011;6832;51.186;3.236;2022-10-31T02:10:14;8.97;;;4.63;;
13520;SDS011;6832;51.186;3.236;2022-10-31T02:20:42;8.10;;;4.00;;
13520;SDS011;6832;51.186;3.236;2022-10-31T02:35:57;7.73;;;4.53;;
13520;SDS011;6832;51.186;3.236;2022-10-31T02:41:26;8.73;;;5.20;;
13520;SDS011;6832;51.186;3.236;2022-10-31T02:44:05;12.63;;;5.50;;
13520;SDS011;6832;51.186;3.236;2022-10-31T02:49:17;10.03;;;4.57;;
13520;SDS011;6832;51.186;3.236;2022-10-31T02:51:54;9.87;;;4.77;;
13520;SDS011;6832;51.186;3.236;2022-10-31T02:54:32;8.10;;;4.33;;
13520;SDS011;6832;51.186;3.236;2022-10-31T02:57:06;5.30;;;4.23;;
13520;SDS011;6832;51.186;3.236;2022-10-31T02:59:37;10.60;;;5.53;;
13520;SDS011;6832;51.186;3.236;2022-10-31T03:05:20;13.73;;;6.80;;
13520;SDS011;6832;51.186;3.236;2022-10-31T03:08:02;18.60;;;6.70;;
13520;SDS011;6832;51.186;3.236;2022-10-31T03:13:20;12.53;;;6.03;;
13520;SDS011;6832;51.186;3.236;2022-10-31T03:16:07;7.70;;;4.87;;
13520;SDS011;6832;51.186;3.236;2022-10-31T03:18:44;7.47;;;4.90;;
13520;SDS011;6832;51.186;3.236;2022-10-31T03:21:21;7.90;;;4.67;;
13520;SDS011;6832;51.186;3.236;2022-10-31T03:24:05;7.73;;;4.93;;
13520;SDS011;6832;51.186;3.236;2022-10-31T03:26:39;5.23;;;4.23;;
13520;SDS011;6832;51.186;3.236;2022-10-31T03:29:13;6.67;;;4.47;;
13520;SDS011;6832;51.186;3.236;2022-10-31T03:31:49;7.93;;;4.70;;
13520;SDS011;6832;51.186;3.236;2022-10-31T03:34:21;10.87;;;4.83;;
13520;SDS011;6832;51.186;3.236;2022-10-31T03:39:26;9.13;;;5.03;;
13520;SDS011;6832;51.186;3.236;2022-10-31T03:41:57;11.47;;;5.50;;
13520;SDS011;6832;51.186;3.236;2022-10-31T03:44:34;8.67;;;4.77;;
13520;SDS011;6832;51.186;3.236;2022-10-31T03:47:07;9.73;;;4.70;;
13520;SDS011;6832;51.186;3.236;2022-10-31T03:49:36;8.17;;;4.23;;
13520;SDS011;6832;51.186;3.236;2022-10-31T03:52:07;7.33;;;4.53;;
13520;SDS011;6832;51.186;3.236;2022-10-31T03:54:51;10.43;;;5.37;;
13520;SDS011;6832;51.186;3.236;2022-10-31T03:57:25;9.07;;;5.10;;
13520;SDS011;6832;51.186;3.236;2022-10-31T04:00:05;10.30;;;5.03;;
13520;SDS011;6832;51.186;3.236;2022-10-31T04:02:37;7.57;;;4.93;;
13520;SDS011;6832;51.186;3.236;2022-10-31T04:05:11;6.07;;;3.93;;
13520;SDS011;6832;51.186;3.236;2022-10-31T04:07:41;9.23;;;5.23;;
13520;SDS011;6832;51.186;3.236;2022-10-31T04:10:16;7.37;;;4.23;;
13520;SDS011;6832;51.186;3.236;2022-10-31T04:12:50;6.80;;;4.30;;
13520;SDS011;6832;51.186;3.236;2022-10-31T04:15:26;11.93;;;5.63;;
13520;SDS011;6832;51.186;3.236;2022-10-31T04:18:04;7.73;;;4.43;;
13520;SDS011;6832;51.186;3.236;2022-10-31T04:20:36;6.63;;;3.90;;
13520;SDS011;6832;51.186;3.236;2022-10-31T04:23:14;10.20;;;4.90;;
13520;SDS011;6832;51.186;3.236;2022-10-31T04:25:49;8.47;;;4.60;;
13520;SDS011;6832;51.186;3.236;2022-10-31T04:28:21;9.50;;;5.07;;
13520;SDS011;6832;51.186;3.236;2022-10-31T04:30:54;9.53;;;4.83;;
13520;SDS011;6832;51.186;3.236;2022-10-31T04:33:23;9.67;;;5.43;;
13520;SDS011;6832;51.186;3.236;2022-10-31T04:35:55;6.80;;;4.33;;
13520;SDS011;6832;51.186;3.236;2022-10-31T04:38:24;8.97;;;5.17;;
13520;SDS011;6832;51.186;3.236;2022-10-31T04:40:57;10.17;;;4.73;;
13520;SDS011;6832;51.186;3.236;2022-10-31T04:43:29;13.47;;;5.43;;
13520;SDS011;6832;51.186;3.236;2022-10-31T04:46:05;8.43;;;5.07;;
13520;SDS011;6832;51.186;3.236;2022-10-31T04:48:39;8.23;;;4.40;;
13520;SDS011;6832;51.186;3.236;2022-10-31T04:51:10;6.53;;;4.07;;
13520;SDS011;6832;51.186;3.236;2022-10-31T04:53:41;13.23;;;6.57;;
13520;SDS011;6832;51.186;3.236;2022-10-31T04:56:25;11.53;;;5.57;;
13520;SDS011;6832;51.186;3.236;2022-10-31T04:58:53;11.73;;;5.53;;
13520;SDS011;6832;51.186;3.236;2022-10-31T05:01:26;7.67;;;4.80;;
13520;SDS011;6832;51.186;3.236;2022-10-31T05:04:03;9.47;;;5.37;;
13520;SDS011;6832;51.186;3.236;2022-10-31T05:06:39;10.03;;;5.33;;
13520;SDS011;6832;51.186;3.236;2022-10-31T05:09:15;19.00;;;7.37;;
13520;SDS011;6832;51.186;3.236;2022-10-31T05:11:48;7.80;;;4.73;;
13520;SDS011;6832;51.186;3.236;2022-10-31T05:14:25;6.47;;;5.17;;
13520;SDS011;6832;51.186;3.236;2022-10-31T05:16:56;14.80;;;7.53;;
13520;SDS011;6832;51.186;3.236;2022-10-31T05:19:34;9.93;;;4.97;;
13520;SDS011;6832;51.186;3.236;2022-10-31T05:22:05;6.43;;;4.10;;
13520;SDS011;6832;51.186;3.236;2022-10-31T05:24:33;8.70;;;5.40;;
13520;SDS011;6832;51.186;3.236;2022-10-31T05:27:10;7.93;;;5.23;;
13520;SDS011;6832;51.186;3.236;2022-10-31T05:29:40;10.77;;;5.53;;
13520;SDS011;6832;51.186;3.236;2022-10-31T05:34:44;12.10;;;5.80;;
13520;SDS011;6832;51.186;3.236;2022-10-31T05:39:46;7.03;;;4.50;;
13520;SDS011;6832;51.186;3.236;2022-10-31T05:42:17;9.17;;;5.07;;
13520;SDS011;6832;51.186;3.236;2022-10-31T05:45:00;10.23;;;5.70;;
13520;SDS011;6832;51.186;3.236;2022-10-31T05:47:28;6.73;;;4.00;;
13520;SDS011;6832;51.186;3.236;2022-10-31T05:49:57;15.07;;;6.67;;
13520;SDS011;6832;51.186;3.236;2022-10-31T05:52:30;11.83;;;5.97;;
13520;SDS011;6832;51.186;3.236;2022-10-31T05:54:59;14.67;;;6.37;;
13520;SDS011;6832;51.186;3.236;2022-10-31T05:57:33;9.83;;;4.93;;
13520;SDS011;6832;51.186;3.236;2022-10-31T06:02:40;13.63;;;6.33;;
13520;SDS011;6832;51.186;3.236;2022-10-31T06:05:08;7.73;;;4.67;;
13520;SDS011;6832;51.186;3.236;2022-10-31T06:07:41;10.17;;;5.07;;
13520;SDS011;6832;51.186;3.236;2022-10-31T06:10:10;8.90;;;4.83;;
13520;SDS011;6832;51.186;3.236;2022-10-31T06:12:39;8.27;;;3.93;;
13520;SDS011;6832;51.186;3.236;2022-10-31T06:15:09;7.80;;;4.67;;
13520;SDS011;6832;51.186;3.236;2022-10-31T06:17:36;11.93;;;5.47;;
13520;SDS011;6832;51.186;3.236;2022-10-31T06:20:15;9.63;;;4.30;;
13520;SDS011;6832;51.186;3.236;2022-10-31T06:22:43;9.97;;;5.07;;
13520;SDS011;6832;51.186;3.236;2022-10-31T06:25:12;9.90;;;5.03;;
13520;SDS011;6832;51.186;3.236;2022-10-31T06:27:47;13.87;;;5.90;;
13520;SDS011;6832;51.186;3.236;2022-10-31T06:30:15;9.67;;;5.43;;
13520;SDS011;6832;51.186;3.236;2022-10-31T06:32:44;9.57;;;5.30;;
13520;SDS011;6832;51.186;3.236;2022-10-31T06:35:29;12.50;;;5.73;;
13520;SDS011;6832;51.186;3.236;2022-10-31T06:38:14;17.43;;;6.67;;
13520;SDS011;6832;51.186;3.236;2022-10-31T06:40:56;15.80;;;6.40;;
13520;SDS011;6832;51.186;3.236;2022-10-31T06:43:32;9.27;;;4.73;;
13520;SDS011;6832;51.186;3.236;2022-10-31T06:46:10;6.13;;;4.17;;
13520;SDS011;6832;51.186;3.236;2022-10-31T06:48:37;5.63;;;4.33;;
13520;SDS011;6832;51.186;3.236;2022-10-31T06:51:08;5.63;;;4.13;;
13520;SDS011;6832;51.186;3.236;2022-10-31T06:53:42;9.33;;;5.07;;
13520;SDS011;6832;51.186;3.236;2022-10-31T06:56:09;10.17;;;5.27;;
13520;SDS011;6832;51.186;3.236;2022-10-31T06:58:40;11.37;;;5.47;;
13520;SDS011;6832;51.186;3.236;2022-10-31T07:01:12;12.03;;;5.83;;
13520;SDS011;6832;51.186;3.236;2022-10-31T07:03:50;11.23;;;5.23;;
13520;SDS011;6832;51.186;3.236;2022-10-31T07:06:18;8.80;;;5.10;;
13520;SDS011;6832;51.186;3.236;2022-10-31T07:08:54;12.40;;;6.03;;
13520;SDS011;6832;51.186;3.236;2022-10-31T07:16:58;9.03;;;5.30;;
13520;SDS011;6832;51.186;3.236;2022-10-31T07:22:00;16.07;;;6.80;;
13520;SDS011;6832;51.186;3.236;2022-10-31T07:24:37;8.07;;;4.97;;
13520;SDS011;6832;51.186;3.236;2022-10-31T07:27:05;11.03;;;5.80;;
13520;SDS011;6832;51.186;3.236;2022-10-31T07:29:54;8.83;;;6.43;;
13520;SDS011;6832;51.186;3.236;2022-10-31T07:32:26;10.97;;;6.63;;
13520;SDS011;6832;51.186;3.236;2022-10-31T07:35:03;9.63;;;6.17;;
13520;SDS011;6832;51.186;3.236;2022-10-31T07:37:32;13.90;;;7.80;;
13520;SDS011;6832;51.186;3.236;2022-10-31T07:40:00;12.60;;;6.90;;
13520;SDS011;6832;51.186;3.236;2022-10-31T07:42:47;13.53;;;7.37;;
13520;SDS011;6832;51.186;3.236;2022-10-31T07:45:32;16.23;;;7.63;;
13520;SDS011;6832;51.186;3.236;2022-10-31T07:47:59;14.27;;;7.13;;
13520;SDS011;6832;51.186;3.236;2022-10-31T07:50:31;14.77;;;7.27;;
13520;SDS011;6832;51.186;3.236;2022-10-31T07:53:01;10.67;;;7.17;;
13520;SDS011;6832;51.186;3.236;2022-10-31T07:55:29;16.20;;;7.60;;
13520;SDS011;6832;51.186;3.236;2022-10-31T07:58:07;10.20;;;5.97;;
13520;SDS011;6832;51.186;3.236;2022-10-31T08:00:44;11.83;;;5.60;;
13520;SDS011;6832;51.186;3.236;2022-10-31T08:03:23;8.73;;;5.70;;
13520;SDS011;6832;51.186;3.236;2022-10-31T08:05:51;13.53;;;6.57;;
13520;SDS011;6832;51.186;3.236;2022-10-31T08:08:31;11.97;;;5.53;;
13520;SDS011;6832;51.186;3.236;2022-10-31T08:13:41;6.03;;;5.03;;
13520;SDS011;6832;51.186;3.236;2022-10-31T08:21:21;7.53;;;4.90;;
13520;SDS011;6832;51.186;3.236;2022-10-31T08:23:58;6.53;;;4.93;;
13520;SDS011;6832;51.186;3.236;2022-10-31T08:26:33;9.27;;;5.70;;
13520;SDS011;6832;51.186;3.236;2022-10-31T08:29:00;10.17;;;5.40;;
13520;SDS011;6832;51.186;3.236;2022-10-31T08:31:38;13.77;;;6.70;;
13520;SDS011;6832;51.186;3.236;2022-10-31T08:34:17;8.07;;;5.43;;
13520;SDS011;6832;51.186;3.236;2022-10-31T08:36:46;8.87;;;5.80;;
13520;SDS011;6832;51.186;3.236;2022-10-31T08:39:20;8.33;;;5.87;;
13520;SDS011;6832;51.186;3.236;2022-10-31T08:41:52;10.80;;;5.70;;
13520;SDS011;6832;51.186;3.236;2022-10-31T08:44:22;7.53;;;4.67;;
13520;SDS011;6832;51.186;3.236;2022-10-31T08:46:51;12.90;;;7.07;;
13520;SDS011;6832;51.186;3.236;2022-10-31T08:49:19;10.83;;;5.97;;
13520;SDS011;6832;51.186;3.236;2022-10-31T08:54:31;10.43;;;6.67;;
13520;SDS011;6832;51.186;3.236;2022-10-31T08:57:08;9.03;;;6.47;;
13520;SDS011;6832;51.186;3.236;2022-10-31T08:59:45;7.80;;;5.90;;
13520;SDS011;6832;51.186;3.236;2022-10-31T09:02:25;13.07;;;7.10;;
13520;SDS011;6832;51.186;3.236;2022-10-31T09:04:53;9.27;;;6.20;;
13520;SDS011;6832;51.186;3.236;2022-10-31T09:07:20;13.30;;;7.37;;
13520;SDS011;6832;51.186;3.236;2022-10-31T09:09:52;7.20;;;5.40;;
13520;SDS011;6832;51.186;3.236;2022-10-31T09:12:21;12.93;;;7.13;;
13520;SDS011;6832;51.186;3.236;2022-10-31T09:14:52;10.60;;;7.17;;
13520;SDS011;6832;51.186;3.236;2022-10-31T09:17:27;10.90;;;5.97;;
13520;SDS011;6832;51.186;3.236;2022-10-31T09:20:07;13.20;;;6.30;;
13520;SDS011;6832;51.186;3.236;2022-10-31T09:22:42;9.37;;;5.50;;
13520;SDS011;6832;51.186;3.236;2022-10-31T09:25:17;11.67;;;7.00;;
13520;SDS011;6832;51.186;3.236;2022-10-31T09:27:50;10.10;;;6.80;;
13520;SDS011;6832;51.186;3.236;2022-10-31T09:30:18;8.27;;;5.50;;
13520;SDS011;6832;51.186;3.236;2022-10-31T09:33:04;8.37;;;5.47;;
13520;SDS011;6832;51.186;3.236;2022-10-31T09:35:32;9.17;;;5.60;;
13520;SDS011;6832;51.186;3.236;2022-10-31T09:38:02;8.63;;;5.43;;
13520;SDS011;6832;51.186;3.236;2022-10-31T09:40:34;11.67;;;6.23;;
13520;SDS011;6832;51.186;3.236;2022-10-31T09:43:22;11.93;;;5.67;;
13520;SDS011;6832;51.186;3.236;2022-10-31T09:46:04;12.20;;;6.37;;
13520;SDS011;6832;51.186;3.236;2022-10-31T09:48:44;11.30;;;6.13;;
13520;SDS011;6832;51.186;3.236;2022-10-31T09:51:28;8.47;;;5.40;;
13520;SDS011;6832;51.186;3.236;2022-10-31T09:54:08;10.17;;;6.13;;
13520;SDS011;6832;51.186;3.236;2022-10-31T09:56:49;10.93;;;6.07;;
13520;SDS011;6832;51.186;3.236;2022-10-31T09:59:21;9.47;;;5.37;;
13520;SDS011;6832;51.186;3.236;2022-10-31T10:01:59;10.90;;;6.53;;
13520;SDS011;6832;51.186;3.236;2022-10-31T10:07:13;7.73;;;5.57;;
13520;SDS011;6832;51.186;3.236;2022-10-31T10:09:55;8.03;;;4.83;;
13520;SDS011;6832;51.186;3.236;2022-10-31T10:12:33;10.47;;;6.37;;
13520;SDS011;6832;51.186;3.236;2022-10-31T10:15:34;9.37;;;5.20;;
13520;SDS011;6832;51.186;3.236;2022-10-31T10:18:21;7.80;;;5.40;;
13520;SDS011;6832;51.186;3.236;2022-10-31T10:20:59;10.17;;;5.90;;
13520;SDS011;6832;51.186;3.236;2022-10-31T10:23:47;10.57;;;5.03;;
13520;SDS011;6832;51.186;3.236;2022-10-31T10:26:29;8.93;;;5.27;;
13520;SDS011;6832;51.186;3.236;2022-10-31T10:29:16;14.47;;;6.63;;
13520;SDS011;6832;51.186;3.236;2022-10-31T10:31:58;34.40;;;14.90;;
13520;SDS011;6832;51.186;3.236;2022-10-31T10:34:39;8.90;;;5.87;;
13520;SDS011;6832;51.186;3.236;2022-10-31T10:37:26;9.13;;;5.77;;
13520;SDS011;6832;51.186;3.236;2022-10-31T10:40:16;12.87;;;6.27;;
13520;SDS011;6832;51.186;3.236;2022-10-31T10:42:53;7.63;;;5.87;;
13520;SDS011;6832;51.186;3.236;2022-10-31T10:45:44;6.37;;;4.90;;
13520;SDS011;6832;51.186;3.236;2022-10-31T10:48:40;10.00;;;5.60;;
13520;SDS011;6832;51.186;3.236;2022-10-31T10:51:17;10.20;;;6.20;;
13520;SDS011;6832;51.186;3.236;2022-10-31T10:56:59;9.50;;;5.40;;
13520;SDS011;6832;51.186;3.236;2022-10-31T10:59:40;8.03;;;4.90;;
13520;SDS011;6832;51.186;3.236;2022-10-31T11:02:16;8.93;;;5.80;;
13520;SDS011;6832;51.186;3.236;2022-10-31T11:04:48;12.97;;;7.10;;
13520;SDS011;6832;51.186;3.236;2022-10-31T11:07:25;9.60;;;6.13;;
13520;SDS011;6832;51.186;3.236;2022-10-31T11:10:16;9.83;;;6.83;;
13520;SDS011;6832;51.186;3.236;2022-10-31T11:12:44;13.57;;;7.67;;
13520;SDS011;6832;51.186;3.236;2022-10-31T11:15:25;20.00;;;8.87;;
13520;SDS011;6832;51.186;3.236;2022-10-31T11:17:55;9.93;;;6.60;;
13520;SDS011;6832;51.186;3.236;2022-10-31T11:20:33;11.77;;;7.40;;
13520;SDS011;6832;51.186;3.236;2022-10-31T11:23:04;12.70;;;7.27;;
13520;SDS011;6832;51.186;3.236;2022-10-31T11:25:51;9.03;;;6.30;;
13520;SDS011;6832;51.186;3.236;2022-10-31T11:28:23;12.60;;;7.03;;
13520;SDS011;6832;51.186;3.236;2022-10-31T11:30:52;9.57;;;5.87;;
13520;SDS011;6832;51.186;3.236;2022-10-31T11:33:33;8.33;;;5.80;;
13520;SDS011;6832;51.186;3.236;2022-10-31T11:36:13;12.63;;;6.73;;
13520;SDS011;6832;51.186;3.236;2022-10-31T11:38:43;9.50;;;6.87;;
13520;SDS011;6832;51.186;3.236;2022-10-31T11:41:12;10.67;;;7.50;;
13520;SDS011;6832;51.186;3.236;2022-10-31T11:43:49;14.07;;;7.37;;
13520;SDS011;6832;51.186;3.236;2022-10-31T11:46:21;12.93;;;7.33;;
13520;SDS011;6832;51.186;3.236;2022-10-31T11:48:55;11.57;;;5.63;;
13520;SDS011;6832;51.186;3.236;2022-10-31T11:51:28;11.93;;;6.93;;
13520;SDS011;6832;51.186;3.236;2022-10-31T11:54:01;15.77;;;6.43;;
13520;SDS011;6832;51.186;3.236;2022-10-31T11:56:40;8.07;;;5.97;;
13520;SDS011;6832;51.186;3.236;2022-10-31T12:01:59;9.23;;;5.63;;
13520;SDS011;6832;51.186;3.236;2022-10-31T12:04:32;10.10;;;6.20;;
13520;SDS011;6832;51.186;3.236;2022-10-31T12:07:08;11.33;;;6.13;;
13520;SDS011;6832;51.186;3.236;2022-10-31T12:09:38;11.60;;;6.47;;
13520;SDS011;6832;51.186;3.236;2022-10-31T12:12:15;13.23;;;7.17;;
13520;SDS011;6832;51.186;3.236;2022-10-31T12:14:58;8.03;;;5.90;;
13520;SDS011;6832;51.186;3.236;2022-10-31T12:17:44;15.53;;;8.10;;
13520;SDS011;6832;51.186;3.236;2022-10-31T12:20:20;11.80;;;6.30;;
13520;SDS011;6832;51.186;3.236;2022-10-31T12:22:58;7.93;;;5.87;;
13520;SDS011;6832;51.186;3.236;2022-10-31T12:25:34;10.37;;;5.17;;
13520;SDS011;6832;51.186;3.236;2022-10-31T12:28:13;8.63;;;5.60;;
13520;SDS011;6832;51.186;3.236;2022-10-31T12:31:18;8.97;;;5.13;;
13520;SDS011;6832;51.186;3.236;2022-10-31T12:34:09;9.40;;;5.30;;
13520;SDS011;6832;51.186;3.236;2022-10-31T12:37:11;7.87;;;4.87;;
13520;SDS011;6832;51.186;3.236;2022-10-31T12:39:53;9.07;;;5.20;;
13520;SDS011;6832;51.186;3.236;2022-10-31T12:42:48;10.13;;;6.37;;
13520;SDS011;6832;51.186;3.236;2022-10-31T12:45:34;6.87;;;5.40;;
13520;SDS011;6832;51.186;3.236;2022-10-31T12:48:18;6.20;;;5.37;;
13520;SDS011;6832;51.186;3.236;2022-10-31T12:51:03;6.23;;;5.30;;
13520;SDS011;6832;51.186;3.236;2022-10-31T12:53:41;10.60;;;6.37;;
13520;SDS011;6832;51.186;3.236;2022-10-31T12:56:23;8.67;;;6.00;;
13520;SDS011;6832;51.186;3.236;2022-10-31T12:59:07;9.60;;;6.10;;
13520;SDS011;6832;51.186;3.236;2022-10-31T13:01:44;11.70;;;6.63;;
13520;SDS011;6832;51.186;3.236;2022-10-31T13:04:17;9.40;;;6.17;;
13520;SDS011;6832;51.186;3.236;2022-10-31T13:06:53;7.03;;;5.43;;
13520;SDS011;6832;51.186;3.236;2022-10-31T13:09:31;9.37;;;4.90;;
13520;SDS011;6832;51.186;3.236;2022-10-31T13:12:09;9.27;;;5.30;;
13520;SDS011;6832;51.186;3.236;2022-10-31T13:14:44;9.50;;;5.77;;
13520;SDS011;6832;51.186;3.236;2022-10-31T13:20:23;9.83;;;6.00;;
13520;SDS011;6832;51.186;3.236;2022-10-31T13:23:10;10.63;;;6.50;;
13520;SDS011;6832;51.186;3.236;2022-10-31T13:26:03;7.00;;;5.83;;
13520;SDS011;6832;51.186;3.236;2022-10-31T13:28:40;9.37;;;6.57;;
13520;SDS011;6832;51.186;3.236;2022-10-31T13:31:23;15.27;;;8.10;;
13520;SDS011;6832;51.186;3.236;2022-10-31T13:34:08;12.10;;;7.10;;
13520;SDS011;6832;51.186;3.236;2022-10-31T13:36:52;13.83;;;7.57;;
13520;SDS011;6832;51.186;3.236;2022-10-31T13:39:35;7.57;;;5.83;;
13520;SDS011;6832;51.186;3.236;2022-10-31T13:42:23;10.47;;;6.73;;
13520;SDS011;6832;51.186;3.236;2022-10-31T13:48:17;10.00;;;7.10;;
13520;SDS011;6832;51.186;3.236;2022-10-31T13:54:19;9.97;;;7.17;;
13520;SDS011;6832;51.186;3.236;2022-10-31T13:56:50;10.57;;;6.60;;
13520;SDS011;6832;51.186;3.236;2022-10-31T13:59:28;10.50;;;7.10;;
13520;SDS011;6832;51.186;3.236;2022-10-31T14:01:59;10.47;;;6.93;;
13520;SDS011;6832;51.186;3.236;2022-10-31T14:04:49;13.20;;;7.43;;
13520;SDS011;6832;51.186;3.236;2022-10-31T14:07:29;10.60;;;7.57;;
13520;SDS011;6832;51.186;3.236;2022-10-31T14:10:19;11.93;;;7.77;;
13520;SDS011;6832;51.186;3.236;2022-10-31T14:12:54;13.33;;;8.23;;
13520;SDS011;6832;51.186;3.236;2022-10-31T14:15:38;11.17;;;7.67;;
13520;SDS011;6832;51.186;3.236;2022-10-31T14:18:16;12.63;;;8.50;;
13520;SDS011;6832;51.186;3.236;2022-10-31T14:20:51;9.77;;;7.53;;
13520;SDS011;6832;51.186;3.236;2022-10-31T14:23:38;12.00;;;7.90;;
13520;SDS011;6832;51.186;3.236;2022-10-31T14:26:30;11.77;;;8.47;;
13520;SDS011;6832;51.186;3.236;2022-10-31T14:29:34;11.97;;;8.87;;
13520;SDS011;6832;51.186;3.236;2022-10-31T14:32:17;14.93;;;10.07;;
13520;SDS011;6832;51.186;3.236;2022-10-31T14:35:13;14.67;;;8.90;;
13520;SDS011;6832;51.186;3.236;2022-10-31T14:40:58;10.10;;;8.33;;
13520;SDS011;6832;51.186;3.236;2022-10-31T14:43:51;12.30;;;9.40;;
13520;SDS011;6832;51.186;3.236;2022-10-31T14:46:45;10.83;;;8.97;;
13520;SDS011;6832;51.186;3.236;2022-10-31T14:49:29;18.37;;;10.93;;
13520;SDS011;6832;51.186;3.236;2022-10-31T14:52:38;14.47;;;9.43;;
13520;SDS011;6832;51.186;3.236;2022-10-31T14:55:10;16.97;;;10.67;;
13520;SDS011;6832;51.186;3.236;2022-10-31T14:58:03;17.23;;;10.43;;
13520;SDS011;6832;51.186;3.236;2022-10-31T15:00:39;16.47;;;10.57;;
13520;SDS011;6832;51.186;3.236;2022-10-31T15:03:12;15.70;;;10.77;;
13520;SDS011;6832;51.186;3.236;2022-10-31T15:08:44;13.53;;;8.83;;
13520;SDS011;6832;51.186;3.236;2022-10-31T15:11:21;14.07;;;10.07;;
13520;SDS011;6832;51.186;3.236;2022-10-31T15:14:39;13.97;;;9.83;;
13520;SDS011;6832;51.186;3.236;2022-10-31T15:17:14;15.33;;;10.27;;
13520;SDS011;6832;51.186;3.236;2022-10-31T15:19:50;12.43;;;9.57;;
13520;SDS011;6832;51.186;3.236;2022-10-31T15:22:22;20.00;;;10.77;;
13520;SDS011;6832;51.186;3.236;2022-10-31T15:24:56;13.17;;;9.60;;
13520;SDS011;6832;51.186;3.236;2022-10-31T15:27:26;14.63;;;9.83;;
13520;SDS011;6832;51.186;3.236;2022-10-31T15:30:15;13.03;;;9.60;;
13520;SDS011;6832;51.186;3.236;2022-10-31T15:32:44;12.53;;;8.80;;
13520;SDS011;6832;51.186;3.236;2022-10-31T15:35:20;15.63;;;10.27;;
13520;SDS011;6832;51.186;3.236;2022-10-31T15:38:11;8.90;;;8.00;;
13520;SDS011;6832;51.186;3.236;2022-10-31T15:40:50;19.77;;;11.20;;
13520;SDS011;6832;51.186;3.236;2022-10-31T15:43:20;16.67;;;10.93;;
13520;SDS011;6832;51.186;3.236;2022-10-31T15:45:55;16.60;;;10.93;;
13520;SDS011;6832;51.186;3.236;2022-10-31T15:48:28;18.23;;;11.33;;
13520;SDS011;6832;51.186;3.236;2022-10-31T15:51:04;15.37;;;10.80;;
13520;SDS011;6832;51.186;3.236;2022-10-31T15:53:36;14.20;;;10.40;;
13520;SDS011;6832;51.186;3.236;2022-10-31T15:56:12;17.73;;;10.80;;
13520;SDS011;6832;51.186;3.236;2022-10-31T15:58:47;17.93;;;11.73;;
13520;SDS011;6832;51.186;3.236;2022-10-31T16:01:23;14.97;;;10.30;;
13520;SDS011;6832;51.186;3.236;2022-10-31T16:04:04;20.10;;;10.37;;
13520;SDS011;6832;51.186;3.236;2022-10-31T16:06:55;17.53;;;9.60;;
13520;SDS011;6832;51.186;3.236;2022-10-31T16:09:27;16.70;;;10.07;;
13520;SDS011;6832;51.186;3.236;2022-10-31T16:12:17;17.13;;;10.77;;
13520;SDS011;6832;51.186;3.236;2022-10-31T16:14:53;12.27;;;9.50;;
13520;SDS011;6832;51.186;3.236;2022-10-31T16:17:28;15.47;;;9.87;;
13520;SDS011;6832;51.186;3.236;2022-10-31T16:19:58;16.07;;;10.13;;
13520;SDS011;6832;51.186;3.236;2022-10-31T16:22:29;16.00;;;10.63;;
13520;SDS011;6832;51.186;3.236;2022-10-31T16:24:59;17.17;;;10.27;;
13520;SDS011;6832;51.186;3.236;2022-10-31T16:27:32;21.67;;;11.07;;
13520;SDS011;6832;51.186;3.236;2022-10-31T16:30:28;16.50;;;10.93;;
13520;SDS011;6832;51.186;3.236;2022-10-31T16:33:04;21.23;;;12.13;;
13520;SDS011;6832;51.186;3.236;2022-10-31T16:35:46;14.20;;;10.23;;
13520;SDS011;6832;51.186;3.236;2022-10-31T16:38:20;18.13;;;10.60;;
13520;SDS011;6832;51.186;3.236;2022-10-31T16:40:51;13.37;;;9.23;;
13520;SDS011;6832;51.186;3.236;2022-10-31T16:43:22;22.57;;;12.63;;
13520;SDS011;6832;51.186;3.236;2022-10-31T16:45:51;15.23;;;9.40;;
13520;SDS011;6832;51.186;3.236;2022-10-31T16:48:21;16.93;;;10.90;;
13520;SDS011;6832;51.186;3.236;2022-10-31T16:50:49;16.87;;;10.43;;
13520;SDS011;6832;51.186;3.236;2022-10-31T16:53:26;16.00;;;11.30;;
13520;SDS011;6832;51.186;3.236;2022-10-31T16:55:56;18.17;;;12.03;;
13520;SDS011;6832;51.186;3.236;2022-10-31T16:58:27;19.30;;;11.17;;
13520;SDS011;6832;51.186;3.236;2022-10-31T17:01:04;16.27;;;11.60;;
13520;SDS011;6832;51.186;3.236;2022-10-31T17:03:35;16.70;;;11.27;;
13520;SDS011;6832;51.186;3.236;2022-10-31T17:06:03;18.43;;;12.30;;
13520;SDS011;6832;51.186;3.236;2022-10-31T17:08:33;17.27;;;11.10;;
13520;SDS011;6832;51.186;3.236;2022-10-31T17:11:17;13.77;;;10.33;;
13520;SDS011;6832;51.186;3.236;2022-10-31T17:13:50;18.10;;;11.40;;
13520;SDS011;6832;51.186;3.236;2022-10-31T17:16:19;18.60;;;10.90;;
13520;SDS011;6832;51.186;3.236;2022-10-31T17:18:48;19.63;;;10.97;;
13520;SDS011;6832;51.186;3.236;2022-10-31T17:21:17;19.73;;;11.90;;
13520;SDS011;6832;51.186;3.236;2022-10-31T17:23:47;17.27;;;10.70;;
13520;SDS011;6832;51.186;3.236;2022-10-31T17:26:22;16.53;;;11.43;;